sensor_id;sensor_type;location;lat;lon;timestamp;P1;durP1;ratioP1;P2;durP2;ratioP2
10731;SDS011;5417;42.686;23.244;2022-12-28T00:01:23;5.53;;;5.20;;
10731;SDS011;5417;42.686;23.244;2022-12-28T00:03:51;5.47;;;5.07;;
10731;SDS011;5417;42.686;23.244;2022-12-28T00:06:20;5.83;;;5.33;;
10731;SDS011;5417;42.686;23.244;2022-12-28T00:08:47;6.87;;;6.13;;
10731;SDS011;5417;42.686;23.244;2022-12-28T00:11:15;5.63;;;5.23;;
10731;SDS011;5417;42.686;23.244;2022-12-28T00:13:44;6.10;;;5.60;;
10731;SDS011;5417;42.686;23.244;2022-12-28T00:16:12;5.80;;;5.40;;
10731;SDS011;5417;42.686;23.244;2022-12-28T00:18:47;5.43;;;5.13;;
10731;SDS011;5417;42.686;23.244;2022-12-28T00:21:13;4.80;;;4.50;;
10731;SDS011;5417;42.686;23.244;2022-12-28T00:23:40;5.30;;;4.90;;
10731;SDS011;5417;42.686;23.244;2022-12-28T00:26:08;5.60;;;5.20;;
10731;SDS011;5417;42.686;23.244;2022-12-28T00:28:36;5.47;;;5.10;;
10731;SDS011;5417;42.686;23.244;2022-12-28T00:31:04;5.23;;;4.93;;
10731;SDS011;5417;42.686;23.244;2022-12-28T00:33:31;6.47;;;5.97;;
10731;SDS011;5417;42.686;23.244;2022-12-28T00:36:00;5.73;;;5.33;;
10731;SDS011;5417;42.686;23.244;2022-12-28T00:38:28;5.97;;;5.57;;
10731;SDS011;5417;42.686;23.244;2022-12-28T00:40:56;5.87;;;5.37;;
10731;SDS011;5417;42.686;23.244;2022-12-28T00:43:23;6.00;;;5.60;;
10731;SDS011;5417;42.686;23.244;2022-12-28T00:45:50;6.07;;;5.57;;
10731;SDS011;5417;42.686;23.244;2022-12-28T00:48:17;6.33;;;5.83;;
10731;SDS011;5417;42.686;23.244;2022-12-28T00:50:44;6.50;;;6.10;;
10731;SDS011;5417;42.686;23.244;2022-12-28T00:53:13;6.93;;;6.40;;
10731;SDS011;5417;42.686;23.244;2022-12-28T00:55:40;6.63;;;6.13;;
10731;SDS011;5417;42.686;23.244;2022-12-28T00:58:07;7.40;;;6.90;;
10731;SDS011;5417;42.686;23.244;2022-12-28T01:00:35;6.93;;;6.43;;
10731;SDS011;5417;42.686;23.244;2022-12-28T01:03:03;7.73;;;7.23;;
10731;SDS011;5417;42.686;23.244;2022-12-28T01:05:30;8.50;;;7.80;;
10731;SDS011;5417;42.686;23.244;2022-12-28T01:07:57;7.97;;;7.37;;
10731;SDS011;5417;42.686;23.244;2022-12-28T01:10:25;8.73;;;8.07;;
10731;SDS011;5417;42.686;23.244;2022-12-28T01:12:52;8.50;;;7.80;;
10731;SDS011;5417;42.686;23.244;2022-12-28T01:15:20;7.83;;;7.23;;
10731;SDS011;5417;42.686;23.244;2022-12-28T01:17:47;7.73;;;7.13;;
10731;SDS011;5417;42.686;23.244;2022-12-28T01:20:14;8.40;;;7.70;;
10731;SDS011;5417;42.686;23.244;2022-12-28T01:22:41;9.23;;;8.43;;
10731;SDS011;5417;42.686;23.244;2022-12-28T01:25:08;9.67;;;8.87;;
10731;SDS011;5417;42.686;23.244;2022-12-28T01:27:36;9.13;;;8.47;;
10731;SDS011;5417;42.686;23.244;2022-12-28T01:30:03;9.93;;;9.13;;
10731;SDS011;5417;42.686;23.244;2022-12-28T01:32:31;10.77;;;9.83;;
10731;SDS011;5417;42.686;23.244;2022-12-28T01:34:58;9.87;;;9.00;;
10731;SDS011;5417;42.686;23.244;2022-12-28T01:37:24;10.27;;;9.47;;
10731;SDS011;5417;42.686;23.244;2022-12-28T01:39:51;10.10;;;9.27;;
10731;SDS011;5417;42.686;23.244;2022-12-28T01:42:18;10.77;;;9.67;;
10731;SDS011;5417;42.686;23.244;2022-12-28T01:44:47;11.00;;;10.07;;
10731;SDS011;5417;42.686;23.244;2022-12-28T01:47:18;10.23;;;9.43;;
10731;SDS011;5417;42.686;23.244;2022-12-28T01:49:54;10.60;;;9.77;;
10731;SDS011;5417;42.686;23.244;2022-12-28T01:52:27;10.77;;;9.77;;
10731;SDS011;5417;42.686;23.244;2022-12-28T01:55:00;10.20;;;9.30;;
10731;SDS011;5417;42.686;23.244;2022-12-28T01:57:33;10.07;;;9.27;;
10731;SDS011;5417;42.686;23.244;2022-12-28T02:00:06;10.50;;;9.70;;
10731;SDS011;5417;42.686;23.244;2022-12-28T02:02:36;11.23;;;10.23;;
10731;SDS011;5417;42.686;23.244;2022-12-28T02:05:04;10.90;;;9.90;;
10731;SDS011;5417;42.686;23.244;2022-12-28T02:07:35;12.03;;;10.93;;
10731;SDS011;5417;42.686;23.244;2022-12-28T02:10:09;12.53;;;11.43;;
10731;SDS011;5417;42.686;23.244;2022-12-28T02:12:36;11.77;;;10.77;;
10731;SDS011;5417;42.686;23.244;2022-12-28T02:15:06;11.00;;;10.07;;
10731;SDS011;5417;42.686;23.244;2022-12-28T02:17:33;11.80;;;10.80;;
10731;SDS011;5417;42.686;23.244;2022-12-28T02:20:01;11.50;;;10.50;;
10731;SDS011;5417;42.686;23.244;2022-12-28T02:25:45;12.93;;;11.73;;
10731;SDS011;5417;42.686;23.244;2022-12-28T02:31:42;11.40;;;10.30;;
10731;SDS011;5417;42.686;23.244;2022-12-28T02:34:16;12.00;;;10.90;;
10731;SDS011;5417;42.686;23.244;2022-12-28T02:36:49;10.77;;;9.77;;
10731;SDS011;5417;42.686;23.244;2022-12-28T02:39:21;10.07;;;9.17;;
10731;SDS011;5417;42.686;23.244;2022-12-28T02:41:53;10.20;;;9.40;;
10731;SDS011;5417;42.686;23.244;2022-12-28T02:44:22;10.13;;;9.17;;
10731;SDS011;5417;42.686;23.244;2022-12-28T02:47:08;9.10;;;8.07;;
10731;SDS011;5417;42.686;23.244;2022-12-28T02:49:57;9.80;;;9.00;;
10731;SDS011;5417;42.686;23.244;2022-12-28T02:52:44;8.17;;;7.50;;
10731;SDS011;5417;42.686;23.244;2022-12-28T02:55:29;7.87;;;7.27;;
10731;SDS011;5417;42.686;23.244;2022-12-28T02:58:35;7.37;;;6.87;;
10731;SDS011;5417;42.686;23.244;2022-12-28T03:01:23;7.97;;;7.37;;
10731;SDS011;5417;42.686;23.244;2022-12-28T03:04:09;7.77;;;7.07;;
10731;SDS011;5417;42.686;23.244;2022-12-28T03:06:44;7.77;;;7.07;;
10731;SDS011;5417;42.686;23.244;2022-12-28T03:09:39;7.03;;;6.53;;
10731;SDS011;5417;42.686;23.244;2022-12-28T03:12:13;7.87;;;7.17;;
10731;SDS011;5417;42.686;23.244;2022-12-28T03:14:46;8.10;;;7.50;;
10731;SDS011;5417;42.686;23.244;2022-12-28T03:17:17;7.70;;;7.10;;
10731;SDS011;5417;42.686;23.244;2022-12-28T03:20:07;6.90;;;6.40;;
10731;SDS011;5417;42.686;23.244;2022-12-28T03:22:56;7.63;;;7.00;;
10731;SDS011;5417;42.686;23.244;2022-12-28T03:25:42;7.37;;;6.77;;
10731;SDS011;5417;42.686;23.244;2022-12-28T03:28:30;7.90;;;7.30;;
10731;SDS011;5417;42.686;23.244;2022-12-28T03:31:18;24.67;;;18.83;;
10731;SDS011;5417;42.686;23.244;2022-12-28T03:33:48;9.13;;;8.33;;
10731;SDS011;5417;42.686;23.244;2022-12-28T03:36:22;7.90;;;7.30;;
10731;SDS011;5417;42.686;23.244;2022-12-28T03:38:57;7.73;;;6.93;;
10731;SDS011;5417;42.686;23.244;2022-12-28T03:41:29;7.30;;;6.77;;
10731;SDS011;5417;42.686;23.244;2022-12-28T03:44:02;7.30;;;6.70;;
10731;SDS011;5417;42.686;23.244;2022-12-28T03:46:35;7.00;;;6.40;;
10731;SDS011;5417;42.686;23.244;2022-12-28T03:49:09;8.83;;;8.03;;
10731;SDS011;5417;42.686;23.244;2022-12-28T03:51:38;7.10;;;6.50;;
10731;SDS011;5417;42.686;23.244;2022-12-28T03:54:07;7.10;;;6.47;;
10731;SDS011;5417;42.686;23.244;2022-12-28T03:56:34;6.63;;;6.13;;
10731;SDS011;5417;42.686;23.244;2022-12-28T03:59:11;6.33;;;5.83;;
10731;SDS011;5417;42.686;23.244;2022-12-28T04:01:38;7.57;;;6.90;;
10731;SDS011;5417;42.686;23.244;2022-12-28T04:04:05;7.27;;;6.67;;
10731;SDS011;5417;42.686;23.244;2022-12-28T04:06:32;7.60;;;7.00;;
10731;SDS011;5417;42.686;23.244;2022-12-28T04:09:00;7.27;;;6.77;;
10731;SDS011;5417;42.686;23.244;2022-12-28T04:11:27;10.07;;;9.07;;
10731;SDS011;5417;42.686;23.244;2022-12-28T04:13:54;9.87;;;8.90;;
10731;SDS011;5417;42.686;23.244;2022-12-28T04:16:21;9.10;;;8.30;;
10731;SDS011;5417;42.686;23.244;2022-12-28T04:18:49;8.83;;;7.93;;
10731;SDS011;5417;42.686;23.244;2022-12-28T04:21:16;6.70;;;6.00;;
10731;SDS011;5417;42.686;23.244;2022-12-28T04:23:42;7.97;;;7.27;;
10731;SDS011;5417;42.686;23.244;2022-12-28T04:26:11;6.83;;;6.23;;
10731;SDS011;5417;42.686;23.244;2022-12-28T04:28:40;6.30;;;5.80;;
10731;SDS011;5417;42.686;23.244;2022-12-28T04:31:07;5.80;;;5.40;;
10731;SDS011;5417;42.686;23.244;2022-12-28T04:33:37;5.37;;;4.97;;
10731;SDS011;5417;42.686;23.244;2022-12-28T04:36:05;4.63;;;4.33;;
10731;SDS011;5417;42.686;23.244;2022-12-28T04:38:34;4.70;;;4.30;;
10731;SDS011;5417;42.686;23.244;2022-12-28T04:41:02;5.10;;;4.73;;
10731;SDS011;5417;42.686;23.244;2022-12-28T04:43:31;5.00;;;4.60;;
10731;SDS011;5417;42.686;23.244;2022-12-28T04:45:59;5.07;;;4.77;;
10731;SDS011;5417;42.686;23.244;2022-12-28T04:48:28;4.33;;;4.07;;
10731;SDS011;5417;42.686;23.244;2022-12-28T04:50:55;4.50;;;4.20;;
10731;SDS011;5417;42.686;23.244;2022-12-28T04:53:22;4.23;;;3.93;;
10731;SDS011;5417;42.686;23.244;2022-12-28T04:55:50;4.70;;;4.30;;
10731;SDS011;5417;42.686;23.244;2022-12-28T04:58:16;4.97;;;4.57;;
10731;SDS011;5417;42.686;23.244;2022-12-28T05:00:45;4.80;;;4.50;;
10731;SDS011;5417;42.686;23.244;2022-12-28T05:03:12;4.83;;;4.43;;
10731;SDS011;5417;42.686;23.244;2022-12-28T05:05:38;4.70;;;4.40;;
10731;SDS011;5417;42.686;23.244;2022-12-28T05:08:05;4.80;;;4.50;;
10731;SDS011;5417;42.686;23.244;2022-12-28T05:10:32;5.00;;;4.60;;
10731;SDS011;5417;42.686;23.244;2022-12-28T05:12:59;5.23;;;4.87;;
10731;SDS011;5417;42.686;23.244;2022-12-28T05:15:26;5.20;;;4.90;;
10731;SDS011;5417;42.686;23.244;2022-12-28T05:17:54;5.60;;;5.10;;
10731;SDS011;5417;42.686;23.244;2022-12-28T05:20:21;5.70;;;5.30;;
10731;SDS011;5417;42.686;23.244;2022-12-28T05:22:48;3.83;;;3.63;;
10731;SDS011;5417;42.686;23.244;2022-12-28T05:25:15;3.87;;;3.60;;
10731;SDS011;5417;42.686;23.244;2022-12-28T05:27:42;3.43;;;3.23;;
10731;SDS011;5417;42.686;23.244;2022-12-28T05:30:09;4.90;;;4.50;;
10731;SDS011;5417;42.686;23.244;2022-12-28T05:32:36;4.50;;;4.10;;
10731;SDS011;5417;42.686;23.244;2022-12-28T05:35:05;4.30;;;4.00;;
10731;SDS011;5417;42.686;23.244;2022-12-28T05:37:33;3.40;;;3.20;;
10731;SDS011;5417;42.686;23.244;2022-12-28T05:40:00;3.67;;;3.37;;
10731;SDS011;5417;42.686;23.244;2022-12-28T05:42:27;3.60;;;3.40;;
10731;SDS011;5417;42.686;23.244;2022-12-28T05:44:54;3.60;;;3.40;;
10731;SDS011;5417;42.686;23.244;2022-12-28T05:47:21;4.37;;;4.07;;
10731;SDS011;5417;42.686;23.244;2022-12-28T05:49:47;4.50;;;4.10;;
10731;SDS011;5417;42.686;23.244;2022-12-28T05:52:16;4.30;;;4.00;;
10731;SDS011;5417;42.686;23.244;2022-12-28T05:54:43;4.90;;;4.50;;
10731;SDS011;5417;42.686;23.244;2022-12-28T05:57:10;4.93;;;4.53;;
10731;SDS011;5417;42.686;23.244;2022-12-28T05:59:36;4.53;;;4.23;;
10731;SDS011;5417;42.686;23.244;2022-12-28T06:02:04;4.47;;;4.17;;
10731;SDS011;5417;42.686;23.244;2022-12-28T06:04:30;5.13;;;4.67;;
10731;SDS011;5417;42.686;23.244;2022-12-28T06:06:57;4.60;;;4.30;;
10731;SDS011;5417;42.686;23.244;2022-12-28T06:09:26;4.93;;;4.63;;
10731;SDS011;5417;42.686;23.244;2022-12-28T06:11:52;9.50;;;8.70;;
10731;SDS011;5417;42.686;23.244;2022-12-28T06:14:19;4.70;;;4.40;;
10731;SDS011;5417;42.686;23.244;2022-12-28T06:16:46;5.17;;;4.67;;
10731;SDS011;5417;42.686;23.244;2022-12-28T06:19:13;5.10;;;4.70;;
10731;SDS011;5417;42.686;23.244;2022-12-28T06:21:40;4.70;;;4.40;;
10731;SDS011;5417;42.686;23.244;2022-12-28T06:24:08;5.53;;;5.03;;
10731;SDS011;5417;42.686;23.244;2022-12-28T06:26:37;6.17;;;5.77;;
10731;SDS011;5417;42.686;23.244;2022-12-28T06:29:04;5.97;;;5.47;;
10731;SDS011;5417;42.686;23.244;2022-12-28T06:31:32;5.10;;;4.70;;
10731;SDS011;5417;42.686;23.244;2022-12-28T06:34:02;4.97;;;4.57;;
10731;SDS011;5417;42.686;23.244;2022-12-28T06:36:31;5.70;;;5.03;;
10731;SDS011;5417;42.686;23.244;2022-12-28T06:38:59;6.60;;;6.10;;
10731;SDS011;5417;42.686;23.244;2022-12-28T06:41:27;6.10;;;5.50;;
10731;SDS011;5417;42.686;23.244;2022-12-28T06:43:56;5.27;;;4.87;;
10731;SDS011;5417;42.686;23.244;2022-12-28T06:46:25;5.43;;;4.93;;
10731;SDS011;5417;42.686;23.244;2022-12-28T06:48:53;4.90;;;4.60;;
10731;SDS011;5417;42.686;23.244;2022-12-28T06:51:20;4.97;;;4.57;;
10731;SDS011;5417;42.686;23.244;2022-12-28T06:53:48;5.93;;;4.90;;
10731;SDS011;5417;42.686;23.244;2022-12-28T06:56:17;7.63;;;6.00;;
10731;SDS011;5417;42.686;23.244;2022-12-28T06:58:46;6.07;;;5.30;;
10731;SDS011;5417;42.686;23.244;2022-12-28T07:01:16;6.20;;;5.47;;
10731;SDS011;5417;42.686;23.244;2022-12-28T07:03:45;5.90;;;5.40;;
10731;SDS011;5417;42.686;23.244;2022-12-28T07:06:14;20.93;;;18.03;;
10731;SDS011;5417;42.686;23.244;2022-12-28T07:08:43;12.53;;;9.60;;
10731;SDS011;5417;42.686;23.244;2022-12-28T07:11:12;6.17;;;5.77;;
10731;SDS011;5417;42.686;23.244;2022-12-28T07:13:39;6.93;;;6.30;;
10731;SDS011;5417;42.686;23.244;2022-12-28T07:16:10;7.37;;;6.00;;
10731;SDS011;5417;42.686;23.244;2022-12-28T07:18:41;8.83;;;6.97;;
10731;SDS011;5417;42.686;23.244;2022-12-28T07:21:09;8.90;;;7.60;;
10731;SDS011;5417;42.686;23.244;2022-12-28T07:23:37;9.13;;;8.00;;
10731;SDS011;5417;42.686;23.244;2022-12-28T07:26:06;7.90;;;7.20;;
10731;SDS011;5417;42.686;23.244;2022-12-28T07:28:35;6.63;;;5.97;;
10731;SDS011;5417;42.686;23.244;2022-12-28T07:31:03;6.43;;;5.83;;
10731;SDS011;5417;42.686;23.244;2022-12-28T07:33:32;5.63;;;4.93;;
10731;SDS011;5417;42.686;23.244;2022-12-28T07:36:01;5.33;;;4.87;;
10731;SDS011;5417;42.686;23.244;2022-12-28T07:38:28;5.13;;;4.67;;
10731;SDS011;5417;42.686;23.244;2022-12-28T07:40:59;5.77;;;5.37;;
10731;SDS011;5417;42.686;23.244;2022-12-28T07:43:27;4.97;;;4.57;;
10731;SDS011;5417;42.686;23.244;2022-12-28T07:45:58;4.73;;;4.37;;
10731;SDS011;5417;42.686;23.244;2022-12-28T07:48:27;4.80;;;4.40;;
10731;SDS011;5417;42.686;23.244;2022-12-28T07:50:55;6.63;;;5.60;;
10731;SDS011;5417;42.686;23.244;2022-12-28T07:53:23;7.57;;;6.50;;
10731;SDS011;5417;42.686;23.244;2022-12-28T07:55:54;6.37;;;5.87;;
10731;SDS011;5417;42.686;23.244;2022-12-28T07:58:22;6.37;;;5.00;;
10731;SDS011;5417;42.686;23.244;2022-12-28T08:00:49;6.27;;;5.77;;
10731;SDS011;5417;42.686;23.244;2022-12-28T08:03:16;6.20;;;5.70;;
10731;SDS011;5417;42.686;23.244;2022-12-28T08:05:44;5.87;;;5.33;;
10731;SDS011;5417;42.686;23.244;2022-12-28T08:08:11;7.00;;;6.47;;
10731;SDS011;5417;42.686;23.244;2022-12-28T08:10:39;10.07;;;6.77;;
10731;SDS011;5417;42.686;23.244;2022-12-28T08:13:06;7.20;;;6.60;;
10731;SDS011;5417;42.686;23.244;2022-12-28T08:15:33;7.53;;;6.83;;
10731;SDS011;5417;42.686;23.244;2022-12-28T08:18:00;7.40;;;6.73;;
10731;SDS011;5417;42.686;23.244;2022-12-28T08:20:27;8.40;;;7.20;;
10731;SDS011;5417;42.686;23.244;2022-12-28T08:22:54;8.03;;;7.23;;
10731;SDS011;5417;42.686;23.244;2022-12-28T08:25:21;9.00;;;7.67;;
10731;SDS011;5417;42.686;23.244;2022-12-28T08:27:50;9.73;;;8.07;;
10731;SDS011;5417;42.686;23.244;2022-12-28T08:30:17;7.87;;;7.27;;
10731;SDS011;5417;42.686;23.244;2022-12-28T08:32:43;7.33;;;6.73;;
10731;SDS011;5417;42.686;23.244;2022-12-28T08:35:10;6.90;;;6.40;;
10731;SDS011;5417;42.686;23.244;2022-12-28T08:37:38;6.73;;;6.20;;
10731;SDS011;5417;42.686;23.244;2022-12-28T08:40:05;7.83;;;7.13;;
10731;SDS011;5417;42.686;23.244;2022-12-28T08:42:32;8.90;;;7.23;;
10731;SDS011;5417;42.686;23.244;2022-12-28T08:45:01;7.07;;;6.47;;
10731;SDS011;5417;42.686;23.244;2022-12-28T08:47:28;6.20;;;5.77;;
10731;SDS011;5417;42.686;23.244;2022-12-28T08:49:54;6.83;;;6.20;;
10731;SDS011;5417;42.686;23.244;2022-12-28T08:52:22;6.57;;;6.07;;
10731;SDS011;5417;42.686;23.244;2022-12-28T08:54:49;7.67;;;5.73;;
10731;SDS011;5417;42.686;23.244;2022-12-28T08:57:16;6.57;;;5.97;;
10731;SDS011;5417;42.686;23.244;2022-12-28T08:59:43;6.10;;;5.70;;
10731;SDS011;5417;42.686;23.244;2022-12-28T09:02:12;5.80;;;5.30;;
10731;SDS011;5417;42.686;23.244;2022-12-28T09:04:39;6.70;;;6.10;;
10731;SDS011;5417;42.686;23.244;2022-12-28T09:07:06;6.57;;;5.90;;
10731;SDS011;5417;42.686;23.244;2022-12-28T09:09:33;6.10;;;5.60;;
10731;SDS011;5417;42.686;23.244;2022-12-28T09:12:00;5.40;;;5.00;;
10731;SDS011;5417;42.686;23.244;2022-12-28T09:14:27;5.57;;;4.67;;
10731;SDS011;5417;42.686;23.244;2022-12-28T09:16:54;4.70;;;4.30;;
10731;SDS011;5417;42.686;23.244;2022-12-28T09:19:22;4.37;;;4.00;;
10731;SDS011;5417;42.686;23.244;2022-12-28T09:21:50;5.43;;;5.03;;
10731;SDS011;5417;42.686;23.244;2022-12-28T09:24:19;4.20;;;3.90;;
10731;SDS011;5417;42.686;23.244;2022-12-28T09:26:46;4.50;;;4.10;;
10731;SDS011;5417;42.686;23.244;2022-12-28T09:29:16;4.57;;;4.20;;
10731;SDS011;5417;42.686;23.244;2022-12-28T09:31:43;4.83;;;4.43;;
10731;SDS011;5417;42.686;23.244;2022-12-28T09:34:10;5.60;;;5.20;;
10731;SDS011;5417;42.686;23.244;2022-12-28T09:36:40;5.20;;;4.87;;
10731;SDS011;5417;42.686;23.244;2022-12-28T09:39:08;5.00;;;4.60;;
10731;SDS011;5417;42.686;23.244;2022-12-28T09:41:39;7.57;;;4.47;;
10731;SDS011;5417;42.686;23.244;2022-12-28T09:44:18;4.77;;;4.37;;
10731;SDS011;5417;42.686;23.244;2022-12-28T09:46:56;5.13;;;4.63;;
10731;SDS011;5417;42.686;23.244;2022-12-28T09:49:32;5.20;;;4.87;;
10731;SDS011;5417;42.686;23.244;2022-12-28T09:52:20;5.13;;;4.73;;
10731;SDS011;5417;42.686;23.244;2022-12-28T09:54:51;5.00;;;4.60;;
10731;SDS011;5417;42.686;23.244;2022-12-28T09:57:19;4.60;;;4.30;;
10731;SDS011;5417;42.686;23.244;2022-12-28T09:59:46;4.53;;;4.13;;
10731;SDS011;5417;42.686;23.244;2022-12-28T10:02:16;4.50;;;4.20;;
10731;SDS011;5417;42.686;23.244;2022-12-28T10:04:46;5.13;;;4.73;;
10731;SDS011;5417;42.686;23.244;2022-12-28T10:07:14;5.20;;;4.80;;
10731;SDS011;5417;42.686;23.244;2022-12-28T10:09:43;8.40;;;7.27;;
10731;SDS011;5417;42.686;23.244;2022-12-28T10:12:12;5.83;;;5.33;;
10731;SDS011;5417;42.686;23.244;2022-12-28T10:14:41;11.33;;;9.90;;
10731;SDS011;5417;42.686;23.244;2022-12-28T10:17:11;7.37;;;6.67;;
10731;SDS011;5417;42.686;23.244;2022-12-28T10:19:40;12.23;;;10.97;;
10731;SDS011;5417;42.686;23.244;2022-12-28T10:22:10;12.30;;;10.97;;
10731;SDS011;5417;42.686;23.244;2022-12-28T10:24:40;9.33;;;6.40;;
10731;SDS011;5417;42.686;23.244;2022-12-28T10:27:11;8.57;;;7.83;;
10731;SDS011;5417;42.686;23.244;2022-12-28T10:29:45;14.50;;;5.90;;
10731;SDS011;5417;42.686;23.244;2022-12-28T10:32:14;5.63;;;5.13;;
10731;SDS011;5417;42.686;23.244;2022-12-28T10:34:52;5.43;;;4.97;;
10731;SDS011;5417;42.686;23.244;2022-12-28T10:37:20;5.23;;;4.80;;
10731;SDS011;5417;42.686;23.244;2022-12-28T10:39:51;9.47;;;5.80;;
10731;SDS011;5417;42.686;23.244;2022-12-28T10:42:22;9.70;;;5.93;;
10731;SDS011;5417;42.686;23.244;2022-12-28T10:44:51;9.77;;;8.43;;
10731;SDS011;5417;42.686;23.244;2022-12-28T10:47:26;20.90;;;16.30;;
10731;SDS011;5417;42.686;23.244;2022-12-28T10:49:55;14.87;;;11.40;;
10731;SDS011;5417;42.686;23.244;2022-12-28T10:52:23;8.47;;;7.07;;
10731;SDS011;5417;42.686;23.244;2022-12-28T10:54:53;6.97;;;6.43;;
10731;SDS011;5417;42.686;23.244;2022-12-28T10:57:26;6.17;;;5.67;;
10731;SDS011;5417;42.686;23.244;2022-12-28T11:02:40;6.93;;;6.27;;
10731;SDS011;5417;42.686;23.244;2022-12-28T11:05:17;6.90;;;6.40;;
10731;SDS011;5417;42.686;23.244;2022-12-28T11:07:46;6.73;;;5.37;;
10731;SDS011;5417;42.686;23.244;2022-12-28T11:10:20;5.80;;;5.30;;
10731;SDS011;5417;42.686;23.244;2022-12-28T11:12:50;5.43;;;4.93;;
10731;SDS011;5417;42.686;23.244;2022-12-28T11:15:19;7.83;;;6.47;;
10731;SDS011;5417;42.686;23.244;2022-12-28T11:17:50;7.20;;;6.67;;
10731;SDS011;5417;42.686;23.244;2022-12-28T11:20:20;7.87;;;6.97;;
10731;SDS011;5417;42.686;23.244;2022-12-28T11:22:50;7.37;;;6.77;;
10731;SDS011;5417;42.686;23.244;2022-12-28T11:25:20;6.93;;;6.33;;
10731;SDS011;5417;42.686;23.244;2022-12-28T11:27:54;7.37;;;6.77;;
10731;SDS011;5417;42.686;23.244;2022-12-28T11:30:21;7.33;;;6.73;;
10731;SDS011;5417;42.686;23.244;2022-12-28T11:32:49;7.53;;;6.93;;
10731;SDS011;5417;42.686;23.244;2022-12-28T11:35:19;7.67;;;6.93;;
10731;SDS011;5417;42.686;23.244;2022-12-28T11:37:49;7.80;;;7.10;;
10731;SDS011;5417;42.686;23.244;2022-12-28T11:43:35;8.60;;;7.87;;
10731;SDS011;5417;42.686;23.244;2022-12-28T11:54:52;6.73;;;6.23;;
10731;SDS011;5417;42.686;23.244;2022-12-28T11:57:33;6.63;;;6.13;;
10731;SDS011;5417;42.686;23.244;2022-12-28T12:03:12;6.73;;;5.40;;
10731;SDS011;5417;42.686;23.244;2022-12-28T12:05:49;6.73;;;5.70;;
10731;SDS011;5417;42.686;23.244;2022-12-28T12:11:20;8.70;;;6.30;;
10731;SDS011;5417;42.686;23.244;2022-12-28T12:13:59;6.23;;;5.73;;
10731;SDS011;5417;42.686;23.244;2022-12-28T12:16:28;6.33;;;5.83;;
10731;SDS011;5417;42.686;23.244;2022-12-28T12:19:01;6.60;;;6.10;;
10731;SDS011;5417;42.686;23.244;2022-12-28T12:21:34;6.70;;;6.17;;
10731;SDS011;5417;42.686;23.244;2022-12-28T12:24:16;7.70;;;6.87;;
10731;SDS011;5417;42.686;23.244;2022-12-28T12:26:51;7.93;;;7.33;;
10731;SDS011;5417;42.686;23.244;2022-12-28T12:29:25;7.00;;;6.40;;
10731;SDS011;5417;42.686;23.244;2022-12-28T12:32:01;7.60;;;7.00;;
10731;SDS011;5417;42.686;23.244;2022-12-28T12:34:35;9.40;;;8.50;;
10731;SDS011;5417;42.686;23.244;2022-12-28T12:37:11;10.80;;;9.77;;
10731;SDS011;5417;42.686;23.244;2022-12-28T12:42:54;12.33;;;10.23;;
10731;SDS011;5417;42.686;23.244;2022-12-28T12:45:40;15.33;;;11.83;;
10731;SDS011;5417;42.686;23.244;2022-12-28T12:48:27;18.47;;;16.47;;
10731;SDS011;5417;42.686;23.244;2022-12-28T12:51:04;13.00;;;11.60;;
10731;SDS011;5417;42.686;23.244;2022-12-28T12:53:49;9.87;;;8.97;;
10731;SDS011;5417;42.686;23.244;2022-12-28T12:56:29;10.43;;;9.43;;
10731;SDS011;5417;42.686;23.244;2022-12-28T12:59:11;8.80;;;8.10;;
10731;SDS011;5417;42.686;23.244;2022-12-28T13:01:56;9.80;;;8.87;;
10731;SDS011;5417;42.686;23.244;2022-12-28T13:04:34;12.10;;;8.03;;
10731;SDS011;5417;42.686;23.244;2022-12-28T13:07:01;9.17;;;8.23;;
10731;SDS011;5417;42.686;23.244;2022-12-28T13:09:31;9.77;;;8.80;;
10731;SDS011;5417;42.686;23.244;2022-12-28T13:12:00;14.43;;;10.17;;
10731;SDS011;5417;42.686;23.244;2022-12-28T13:14:27;12.00;;;10.87;;
10731;SDS011;5417;42.686;23.244;2022-12-28T13:16:57;11.83;;;9.70;;
10731;SDS011;5417;42.686;23.244;2022-12-28T13:19:25;11.47;;;9.53;;
10731;SDS011;5417;42.686;23.244;2022-12-28T13:21:53;11.67;;;10.47;;
10731;SDS011;5417;42.686;23.244;2022-12-28T13:24:23;10.63;;;9.63;;
10731;SDS011;5417;42.686;23.244;2022-12-28T13:26:52;10.40;;;9.27;;
10731;SDS011;5417;42.686;23.244;2022-12-28T13:29:21;12.53;;;11.23;;
10731;SDS011;5417;42.686;23.244;2022-12-28T13:31:49;13.83;;;11.80;;
10731;SDS011;5417;42.686;23.244;2022-12-28T13:34:21;17.07;;;15.30;;
10731;SDS011;5417;42.686;23.244;2022-12-28T13:36:49;19.07;;;17.30;;
10731;SDS011;5417;42.686;23.244;2022-12-28T13:39:18;17.97;;;16.17;;
10731;SDS011;5417;42.686;23.244;2022-12-28T13:41:47;21.57;;;19.33;;
10731;SDS011;5417;42.686;23.244;2022-12-28T13:44:26;22.47;;;20.27;;
10731;SDS011;5417;42.686;23.244;2022-12-28T13:47:01;21.07;;;19.17;;
10731;SDS011;5417;42.686;23.244;2022-12-28T13:49:35;19.00;;;16.00;;
10731;SDS011;5417;42.686;23.244;2022-12-28T13:52:08;15.97;;;14.47;;
10731;SDS011;5417;42.686;23.244;2022-12-28T13:54:37;12.10;;;10.90;;
10731;SDS011;5417;42.686;23.244;2022-12-28T13:57:06;12.20;;;11.00;;
10731;SDS011;5417;42.686;23.244;2022-12-28T13:59:34;11.50;;;10.30;;
10731;SDS011;5417;42.686;23.244;2022-12-28T14:02:01;11.03;;;10.00;;
10731;SDS011;5417;42.686;23.244;2022-12-28T14:04:29;11.57;;;10.40;;
10731;SDS011;5417;42.686;23.244;2022-12-28T14:06:59;11.07;;;10.00;;
10731;SDS011;5417;42.686;23.244;2022-12-28T14:09:26;10.93;;;9.83;;
10731;SDS011;5417;42.686;23.244;2022-12-28T14:11:53;13.83;;;10.50;;
10731;SDS011;5417;42.686;23.244;2022-12-28T14:14:21;12.17;;;10.97;;
10731;SDS011;5417;42.686;23.244;2022-12-28T14:16:48;13.00;;;11.70;;
10731;SDS011;5417;42.686;23.244;2022-12-28T14:19:16;12.57;;;11.23;;
10731;SDS011;5417;42.686;23.244;2022-12-28T14:21:43;13.13;;;10.90;;
10731;SDS011;5417;42.686;23.244;2022-12-28T14:24:12;13.43;;;11.23;;
10731;SDS011;5417;42.686;23.244;2022-12-28T14:26:43;11.63;;;10.53;;
10731;SDS011;5417;42.686;23.244;2022-12-28T14:29:16;13.47;;;11.63;;
10731;SDS011;5417;42.686;23.244;2022-12-28T14:31:47;12.00;;;10.80;;
10731;SDS011;5417;42.686;23.244;2022-12-28T14:34:20;12.83;;;11.27;;
10731;SDS011;5417;42.686;23.244;2022-12-28T14:36:50;13.83;;;12.43;;
10731;SDS011;5417;42.686;23.244;2022-12-28T14:39:23;13.77;;;12.37;;
10731;SDS011;5417;42.686;23.244;2022-12-28T14:41:54;18.63;;;12.87;;
10731;SDS011;5417;42.686;23.244;2022-12-28T14:44:24;15.10;;;13.17;;
10731;SDS011;5417;42.686;23.244;2022-12-28T14:46:53;13.67;;;12.23;;
10731;SDS011;5417;42.686;23.244;2022-12-28T14:55:17;14.30;;;12.80;;
10731;SDS011;5417;42.686;23.244;2022-12-28T14:57:48;16.10;;;13.43;;
10731;SDS011;5417;42.686;23.244;2022-12-28T15:00:22;18.23;;;15.23;;
10731;SDS011;5417;42.686;23.244;2022-12-28T15:02:51;16.50;;;14.50;;
10731;SDS011;5417;42.686;23.244;2022-12-28T15:05:36;20.40;;;14.93;;
10731;SDS011;5417;42.686;23.244;2022-12-28T15:08:05;15.70;;;13.83;;
10731;SDS011;5417;42.686;23.244;2022-12-28T15:10:35;16.00;;;14.37;;
10731;SDS011;5417;42.686;23.244;2022-12-28T15:13:05;17.23;;;14.27;;
10731;SDS011;5417;42.686;23.244;2022-12-28T15:15:32;14.83;;;13.43;;
10731;SDS011;5417;42.686;23.244;2022-12-28T15:17:59;18.70;;;14.43;;
10731;SDS011;5417;42.686;23.244;2022-12-28T15:20:26;16.33;;;14.27;;
10731;SDS011;5417;42.686;23.244;2022-12-28T15:22:53;15.40;;;13.93;;
10731;SDS011;5417;42.686;23.244;2022-12-28T15:25:20;16.00;;;14.40;;
10731;SDS011;5417;42.686;23.244;2022-12-28T15:27:51;16.33;;;13.97;;
10731;SDS011;5417;42.686;23.244;2022-12-28T15:30:19;16.30;;;14.53;;
10731;SDS011;5417;42.686;23.244;2022-12-28T15:32:47;16.90;;;13.97;;
10731;SDS011;5417;42.686;23.244;2022-12-28T15:35:14;17.67;;;15.50;;